createdAt,value
2023-04-20T00:01:07.792Z,9.46
2023-04-20T00:06:09.448Z,9.43
2023-04-20T00:11:11.132Z,9.38
2023-04-20T00:16:15.399Z,9.35
2023-04-20T00:21:24.083Z,9.36
2023-04-20T00:26:28.024Z,9.35
2023-04-20T00:31:31.646Z,9.33
2023-04-20T00:36:35.672Z,9.26
2023-04-20T00:41:40.003Z,9.20
2023-04-20T00:46:43.864Z,9.18
2023-04-20T00:51:45.595Z,9.02
2023-04-20T00:56:49.734Z,8.91
2023-04-20T01:01:53.984Z,9.01
2023-04-20T01:06:58.850Z,9.12
2023-04-20T01:12:04.957Z,9.20
2023-04-20T01:17:09.667Z,9.24
2023-04-20T01:22:19.577Z,9.29
2023-04-20T01:27:21.319Z,9.31
2023-04-20T01:32:23.182Z,9.30
2023-04-20T01:37:27.476Z,9.31
2023-04-20T01:42:31.452Z,9.30
2023-04-20T01:47:34.223Z,9.29
2023-04-20T01:52:36.147Z,9.29
2023-04-20T01:57:42.174Z,9.18
2023-04-20T02:02:44.080Z,9.04
2023-04-20T02:07:45.912Z,8.85
2023-04-20T02:12:50.293Z,8.85
2023-04-20T02:17:52.552Z,8.89
2023-04-20T02:22:56.749Z,8.88
2023-04-20T02:27:58.550Z,8.89
2023-04-20T02:33:02.552Z,8.86
2023-04-20T02:38:09.191Z,8.79
2023-04-20T02:43:13.521Z,8.77
2023-04-20T02:48:19.494Z,8.71
2023-04-20T02:53:21.561Z,8.68
2023-04-20T02:58:35.029Z,8.61
2023-04-20T03:04:02.797Z,8.60
2023-04-20T03:09:09.501Z,8.56
2023-04-20T03:14:31.461Z,8.49
2023-04-20T03:19:36.707Z,8.50
2023-04-20T03:24:43.948Z,8.43
2023-04-20T03:29:58.876Z,8.37
2023-04-20T03:35:02.963Z,8.35
2023-04-20T03:40:11.146Z,8.35
2023-04-20T03:45:15.684Z,8.32
2023-04-20T03:50:21.986Z,8.20
2023-04-20T03:55:26.514Z,8.08
2023-04-20T04:00:36.638Z,7.99
2023-04-20T04:05:44.194Z,7.95
2023-04-20T04:10:45.951Z,7.91
2023-04-20T04:15:50.043Z,7.89
2023-04-20T04:20:54.571Z,7.88
2023-04-20T04:25:58.773Z,7.78
2023-04-20T04:31:06.083Z,7.73
2023-04-20T04:36:09.478Z,7.65
2023-04-20T04:41:14.513Z,7.59
2023-04-20T04:46:21.607Z,7.57
2023-04-20T04:51:25.903Z,7.51
2023-04-20T04:56:28.515Z,7.48
2023-04-20T05:01:32.508Z,7.69
2023-04-20T05:06:36.534Z,8.00
2023-04-20T05:11:45.485Z,8.21
2023-04-20T05:16:47.293Z,7.90
2023-04-20T05:21:49.140Z,7.72
2023-04-20T05:26:50.829Z,7.79
2023-04-20T05:31:52.547Z,7.64
2023-04-20T05:36:58.786Z,7.55
2023-04-20T05:42:03.055Z,7.45
2023-04-20T05:47:09.837Z,7.38
2023-04-20T05:52:13.816Z,7.25
2023-04-20T05:57:15.661Z,7.15
2023-04-20T06:02:19.468Z,7.05
2023-04-20T06:07:25.954Z,6.99
2023-04-20T06:12:30.805Z,6.94
2023-04-20T06:17:35.256Z,6.90
2023-04-20T06:22:39.785Z,6.98
2023-04-20T06:27:46.644Z,6.98
2023-04-20T06:32:48.384Z,6.99
2023-04-20T06:37:50.049Z,6.96
2023-04-20T06:42:51.722Z,6.97
2023-04-20T06:47:55.276Z,6.95
2023-04-20T06:52:59.349Z,6.99
2023-04-20T06:58:01.343Z,7.05
2023-04-20T07:03:05.420Z,7.11
2023-04-20T07:08:09.682Z,7.10
2023-04-20T07:13:16.505Z,7.05
2023-04-20T07:18:20.528Z,7.01
2023-04-20T07:23:24.531Z,7.01
2023-04-20T07:28:26.305Z,7.00
2023-04-20T07:33:29.861Z,7.04
2023-04-20T07:38:34.063Z,7.06
2023-04-20T07:43:35.792Z,7.06
2023-04-20T07:48:37.560Z,7.04
2023-04-20T07:53:42.238Z,7.05
2023-04-20T07:58:46.610Z,7.16
2023-04-20T08:03:50.826Z,7.17
2023-04-20T08:08:54.814Z,7.43
2023-04-20T08:14:01.916Z,7.49
2023-04-20T08:24:21.884Z,7.58
2023-04-20T08:29:23.544Z,7.68
2023-04-20T08:34:27.796Z,7.70
2023-04-20T08:39:30.470Z,7.64
2023-04-20T08:44:35.028Z,7.61
2023-04-20T08:49:41.302Z,7.66
2023-04-20T08:54:56.093Z,7.63
2023-04-20T09:00:07.926Z,7.62
2023-04-20T09:05:12.303Z,7.52
2023-04-20T09:10:16.309Z,7.56
2023-04-20T09:15:28.382Z,7.66
2023-04-20T09:20:31.942Z,7.74
2023-04-20T09:25:38.741Z,7.91
2023-04-20T09:30:45.770Z,7.86
2023-04-20T09:35:49.993Z,7.87
2023-04-20T09:40:54.033Z,8.00
2023-04-20T09:45:58.106Z,7.96
2023-04-20T09:51:03.314Z,7.96
2023-04-20T09:56:07.875Z,7.98
2023-04-20T10:01:11.041Z,8.14
2023-04-20T10:06:24.568Z,8.22
2023-04-20T10:11:48.811Z,8.23
2023-04-20T10:17:02.449Z,8.40
2023-04-20T10:22:06.846Z,8.30
2023-04-20T10:27:19.349Z,8.41
2023-04-20T10:32:28.958Z,8.34
2023-04-20T10:37:32.022Z,8.66
2023-04-20T10:42:43.849Z,8.69
2023-04-20T10:47:45.951Z,9.07
2023-04-20T10:52:49.718Z,10.27
2023-04-20T10:57:54.085Z,10.90
2023-04-20T11:02:57.175Z,11.27
2023-04-20T11:08:01.432Z,11.58
2023-04-20T11:13:05.483Z,11.63
2023-04-20T11:18:08.589Z,11.45
2023-04-20T11:23:12.539Z,11.41
2023-04-20T11:28:17.098Z,11.26
2023-04-20T11:33:29.313Z,11.00
2023-04-20T11:38:33.002Z,10.83
2023-04-20T11:43:38.397Z,10.63
2023-04-20T11:48:40.259Z,10.45
2023-04-20T11:53:46.701Z,10.31
2023-04-20T11:58:50.933Z,10.25
2023-04-20T12:03:55.638Z,10.46
2023-04-20T12:08:57.957Z,11.06
2023-04-20T12:14:02.047Z,11.51
2023-04-20T12:19:05.960Z,11.73
2023-04-20T12:24:07.928Z,11.79
2023-04-20T12:29:12.904Z,11.73
2023-04-20T12:34:19.289Z,12.18
2023-04-20T12:39:21.902Z,12.40
2023-04-20T12:44:26.661Z,13.55
2023-04-20T12:49:33.159Z,14.38
2023-04-20T12:54:35.466Z,14.40
2023-04-20T12:59:39.689Z,13.76
2023-04-20T13:04:41.609Z,13.29
2023-04-20T13:09:43.665Z,13.14
2023-04-20T13:14:47.662Z,12.87
2023-04-20T13:19:49.839Z,12.74
2023-04-20T13:24:53.749Z,12.38
2023-04-20T13:29:55.777Z,12.41
2023-04-20T13:34:58.113Z,12.37
2023-04-20T13:40:00.398Z,12.11
2023-04-20T13:45:02.500Z,11.92
2023-04-20T13:50:06.941Z,11.83
2023-04-20T13:55:09.314Z,11.60
2023-04-20T14:00:11.628Z,11.55
2023-04-20T14:05:15.680Z,11.65
2023-04-20T14:10:17.399Z,11.50
2023-04-20T14:15:21.914Z,11.33
2023-04-20T14:20:23.882Z,11.49
2023-04-20T14:25:28.209Z,11.84
2023-04-20T14:30:32.423Z,11.74
2023-04-20T14:35:34.322Z,11.74
2023-04-20T14:40:38.427Z,11.57
2023-04-20T14:45:45.633Z,11.47
2023-04-20T14:50:49.612Z,11.14
2023-04-20T14:55:51.458Z,10.93
2023-04-20T15:00:54.694Z,10.92
2023-04-20T15:06:00.787Z,10.70
2023-04-20T15:11:09.864Z,10.68
2023-04-20T15:16:11.917Z,10.61
2023-04-20T15:21:16.111Z,10.60
2023-04-20T15:26:20.984Z,10.64
2023-04-20T15:31:22.811Z,10.73
2023-04-20T15:36:24.630Z,10.88
2023-04-20T15:41:28.661Z,10.86
2023-04-20T15:46:30.527Z,10.95
2023-04-20T15:51:32.455Z,10.92
2023-04-20T15:56:34.193Z,10.85
2023-04-20T16:01:38.413Z,10.80
2023-04-20T16:06:42.330Z,10.83
2023-04-20T16:11:44.191Z,10.89
2023-04-20T16:16:46.061Z,10.89
2023-04-20T16:21:50.321Z,10.92
2023-04-20T16:26:56.772Z,10.92
2023-04-20T16:31:58.609Z,10.91
2023-04-20T16:37:02.553Z,10.86
2023-04-20T16:42:08.688Z,10.79
2023-04-20T16:47:10.524Z,10.76
2023-04-20T16:52:12.322Z,10.83
2023-04-20T16:57:17.512Z,10.87
2023-04-20T17:02:21.753Z,10.89
2023-04-20T17:07:23.879Z,10.88
2023-04-20T17:12:30.393Z,10.85
2023-04-20T17:17:32.881Z,10.88
2023-04-20T17:22:35.535Z,10.95
2023-04-20T17:27:37.250Z,10.88
2023-04-20T17:32:39.100Z,10.99
2023-04-20T17:37:43.140Z,11.41
2023-04-20T17:42:47.476Z,11.18
2023-04-20T17:47:53.549Z,10.83
2023-04-20T17:52:55.624Z,10.57
2023-04-20T17:57:57.373Z,10.46
2023-04-20T18:03:01.433Z,10.40
2023-04-20T18:08:06.697Z,10.36
2023-04-20T18:13:11.940Z,10.29
2023-04-20T18:18:13.860Z,10.24
2023-04-20T18:23:15.742Z,10.18
2023-04-20T18:28:17.675Z,10.11
2023-04-20T18:33:24.392Z,10.05
2023-04-20T18:38:26.062Z,10.01
2023-04-20T18:43:32.538Z,9.96
2023-04-20T18:48:34.291Z,9.99
2023-04-20T18:53:38.511Z,9.94
2023-04-20T18:58:40.257Z,9.87
2023-04-20T19:03:45.517Z,9.83
2023-04-20T19:08:55.300Z,9.78
2023-04-20T19:13:57.204Z,9.73
2023-04-20T19:18:59.545Z,9.73
2023-04-20T19:24:03.743Z,9.70
2023-04-20T19:29:08.676Z,9.65
2023-04-20T19:34:13.486Z,9.63
2023-04-20T19:39:20.456Z,9.59
2023-04-20T19:44:24.625Z,9.47
2023-04-20T19:49:26.928Z,9.39
2023-04-20T19:54:28.691Z,9.37
2023-04-20T19:59:32.769Z,9.42
2023-04-20T20:04:38.045Z,9.46
2023-04-20T20:09:44.913Z,9.44
2023-04-20T20:14:46.636Z,9.34
2023-04-20T20:19:53.782Z,9.17
2023-04-20T20:25:01.205Z,9.00
2023-04-20T20:30:08.144Z,8.88
2023-04-20T20:35:11.640Z,8.79
2023-04-20T20:40:16.661Z,8.66
2023-04-20T20:45:18.480Z,8.63
2023-04-20T20:50:20.795Z,8.65
2023-04-20T20:55:22.546Z,8.60
2023-04-20T21:00:24.474Z,8.50
2023-04-20T21:05:26.174Z,8.43
2023-04-20T21:10:27.897Z,8.41
2023-04-20T21:15:34.194Z,8.33
2023-04-20T21:20:35.869Z,8.35
2023-04-20T21:25:37.618Z,8.34
2023-04-20T21:30:39.359Z,8.28
2023-04-20T21:35:43.312Z,8.20
2023-04-20T21:40:45.033Z,8.13
2023-04-20T21:45:46.720Z,8.08
2023-04-20T21:50:48.481Z,8.02
2023-04-20T21:55:52.415Z,7.99
2023-04-20T22:00:54.091Z,7.93
2023-04-20T22:05:58.994Z,7.92
2023-04-20T22:11:00.722Z,7.89
2023-04-20T22:16:05.050Z,7.92
2023-04-20T22:21:09.162Z,7.87
2023-04-20T22:26:10.893Z,7.76
2023-04-20T22:31:14.974Z,7.70
2023-04-20T22:36:20.367Z,7.66
2023-04-20T22:41:22.124Z,7.61
2023-04-20T22:46:23.789Z,7.59
2023-04-20T22:51:29.047Z,7.54
2023-04-20T22:56:35.539Z,7.44
2023-04-20T23:01:42.912Z,7.35
2023-04-20T23:06:47.298Z,7.26
2023-04-20T23:11:49.075Z,7.23
2023-04-20T23:16:51.089Z,7.22
2023-04-20T23:21:55.229Z,7.16
2023-04-20T23:27:00.278Z,7.14
2023-04-20T23:32:04.215Z,7.15
2023-04-20T23:37:08.130Z,7.12
2023-04-20T23:42:12.010Z,7.05
2023-04-20T23:47:17.600Z,7.03
2023-04-20T23:52:19.268Z,6.99
2023-04-20T23:57:23.005Z,6.95
